This is the latest recevied weather packets stored in our database for station/object AK6MW. If no packets are shown the sender has not sent any weather packets the latest 10 day(s).
| Time | Temp. | Humidity | Pressure | Rain* | Wind** | Luminosity | Snow |
|---|---|---|---|---|---|---|---|
| 1777950551 | 7.78° C | 75% | 1013.3 hPa | - | - | - | - |
| 1777941534 | 10.56° C | 67% | 1013.7 hPa | - | - | - | - |
| 1777940329 | 10.56° C | 66% | 1013.8 hPa | - | - | - | - |
| 1777939129 | 11.11° C | 68% | 1013.8 hPa | - | - | - | - |
| 1777933128 | 10.56° C | 64% | 1014.7 hPa | - | - | - | - |
| 1777931352 | 11.11° C | 62% | 1014.8 hPa | - | - | - | - |
| 1777927729 | 10.56° C | 64% | 1015.2 hPa | - | - | - | - |
| 1777927151 | 10.56° C | 67% | 1015.2 hPa | - | - | - | - |
| 1777926530 | 10.56° C | 67% | 1015.3 hPa | - | - | - | - |
| 1777924129 | 8.89° C | 72% | 1015.3 hPa | - | - | - | - |
| 1777919928 | 6.67° C | 85% | 1015.3 hPa | - | - | - | - |
| 1777919330 | 6.67° C | 87% | 1015.6 hPa | - | - | - | - |
| 1777916928 | 6.11° C | 86% | 1015.5 hPa | - | - | - | - |
| 1777916328 | 6.67° C | 83% | 1015.5 hPa | - | - | - | - |
| 1777915728 | 7.22° C | 81% | 1015.5 hPa | - | - | - | - |
| 1777909133 | 5.56° C | 85% | 1015 hPa | - | - | - | - |
| 1777906729 | 5° C | 87% | 1014.8 hPa | - | - | - | - |
| 1777898928 | 5.56° C | 83% | 1014.5 hPa | - | - | - | - |
| 1777897728 | 5.56° C | 84% | 1014.2 hPa | - | - | - | - |
| 1777895328 | 5.56° C | 82% | 1014.2 hPa | - | - | - | - |
| 1777891130 | 5.56° C | 81% | 1014.4 hPa | - | - | - | - |
| 1777883329 | 6.67° C | 83% | 1014.6 hPa | - | - | - | - |
| 1777880928 | 6.67° C | 81% | 1015 hPa | - | - | - | - |
| 1777876730 | 7.22° C | 79% | 1014.7 hPa | - | - | - | - |
| 1777867149 | 8.33° C | 74% | 1013.4 hPa | - | - | - | - |
* Rain since midnight (hover to see other rain measurements)
** Current wind speed in m/s (hover to see current wind gust speed)